Aviation Digital Data Service (ADDS)

Output produced by METARs form (0123 UTC 02 April 2015)
found at http://www.aviationweather.gov/adds/metars/
 
KDOV 020058Z AUTO 22001KT 10SM CLR 08/M01 A3018 RMK AO2 SLP223 T00801010 VISNO RWY19 CHINO RWY19 $
TAF KDOV 0200/0306 30004KT 9999 SKC QNH3010INS 
     BECMG 0205/0206 20006KT 9999 SKC QNH3009INS 
     BECMG 0217/0218 18012KT 9999 FEW250 QNH2998INS TX11/0221Z TN01/0211Z